sensor_id;sensor_type;location;lat;lon;timestamp;pressure;altitude;pressure_sealevel;temperature;humidity
62436;BME280;48480;50.252;18.848;2023-12-20T00:02:03;98135.42;;;6.73;64.83
62436;BME280;48480;50.252;18.848;2023-12-20T00:04:47;98129.45;;;6.72;65.04
62436;BME280;48480;50.252;18.848;2023-12-20T00:07:31;98128.68;;;6.70;65.38
62436;BME280;48480;50.252;18.848;2023-12-20T00:10:15;98124.36;;;6.67;65.82
62436;BME280;48480;50.252;18.848;2023-12-20T00:12:59;98123.77;;;6.64;66.27
62436;BME280;48480;50.252;18.848;2023-12-20T00:15:44;98117.78;;;6.62;66.44
62436;BME280;48480;50.252;18.848;2023-12-20T00:18:28;98103.35;;;6.65;66.53
62436;BME280;48480;50.252;18.848;2023-12-20T00:21:12;98095.38;;;6.72;66.17
62436;BME280;48480;50.252;18.848;2023-12-20T00:23:56;98090.61;;;6.83;66.27
62436;BME280;48480;50.252;18.848;2023-12-20T00:26:40;98085.98;;;6.95;66.29
62436;BME280;48480;50.252;18.848;2023-12-20T00:29:24;98107.94;;;7.02;66.43
62436;BME280;48480;50.252;18.848;2023-12-20T00:32:08;98104.82;;;7.07;66.90
62436;BME280;48480;50.252;18.848;2023-12-20T00:34:52;98108.45;;;7.09;67.55
62436;BME280;48480;50.252;18.848;2023-12-20T00:37:36;98092.67;;;7.08;68.23
62436;BME280;48480;50.252;18.848;2023-12-20T00:40:20;98106.17;;;7.08;67.80
62436;BME280;48480;50.252;18.848;2023-12-20T00:43:04;98093.73;;;7.07;67.24
62436;BME280;48480;50.252;18.848;2023-12-20T00:45:48;98092.30;;;7.06;67.16
62436;BME280;48480;50.252;18.848;2023-12-20T00:48:32;98094.41;;;7.04;66.68
62436;BME280;48480;50.252;18.848;2023-12-20T00:51:16;98090.89;;;7.01;66.22
62436;BME280;48480;50.252;18.848;2023-12-20T00:54:00;98072.66;;;6.99;65.18
62436;BME280;48480;50.252;18.848;2023-12-20T00:56:43;98058.24;;;6.97;64.35
62436;BME280;48480;50.252;18.848;2023-12-20T00:59:28;98060.23;;;6.94;64.43
62436;BME280;48480;50.252;18.848;2023-12-20T01:02:12;98053.80;;;6.91;64.17
62436;BME280;48480;50.252;18.848;2023-12-20T01:04:56;98038.73;;;6.90;64.17
62436;BME280;48480;50.252;18.848;2023-12-20T01:07:40;98039.96;;;6.90;63.41
62436;BME280;48480;50.252;18.848;2023-12-20T01:10:24;98047.13;;;6.92;63.30
62436;BME280;48480;50.252;18.848;2023-12-20T01:13:11;98057.61;;;6.90;62.64
62436;BME280;48480;50.252;18.848;2023-12-20T01:15:55;98046.24;;;6.85;61.10
62436;BME280;48480;50.252;18.848;2023-12-20T01:18:39;98026.79;;;6.83;61.06
62436;BME280;48480;50.252;18.848;2023-12-20T01:21:23;98019.22;;;6.82;60.69
62436;BME280;48480;50.252;18.848;2023-12-20T01:24:07;98027.10;;;6.80;60.33
62436;BME280;48480;50.252;18.848;2023-12-20T01:26:52;98026.64;;;6.77;59.70
62436;BME280;48480;50.252;18.848;2023-12-20T01:29:35;98007.20;;;6.77;59.41
62436;BME280;48480;50.252;18.848;2023-12-20T01:32:19;98004.25;;;6.77;58.90
62436;BME280;48480;50.252;18.848;2023-12-20T01:35:03;98014.63;;;6.78;59.07
62436;BME280;48480;50.252;18.848;2023-12-20T01:37:47;98022.55;;;6.76;58.85
62436;BME280;48480;50.252;18.848;2023-12-20T01:40:32;98028.78;;;6.74;58.41
62436;BME280;48480;50.252;18.848;2023-12-20T01:43:16;98026.23;;;6.74;57.78
62436;BME280;48480;50.252;18.848;2023-12-20T01:46:00;98044.64;;;6.73;57.36
62436;BME280;48480;50.252;18.848;2023-12-20T01:48:44;98033.35;;;6.73;56.97
62436;BME280;48480;50.252;18.848;2023-12-20T01:51:29;98027.41;;;6.73;56.83
62436;BME280;48480;50.252;18.848;2023-12-20T01:54:13;98023.80;;;6.74;56.74
62436;BME280;48480;50.252;18.848;2023-12-20T01:56:57;98016.48;;;6.74;56.39
62436;BME280;48480;50.252;18.848;2023-12-20T01:59:41;98020.87;;;6.73;56.53
62436;BME280;48480;50.252;18.848;2023-12-20T02:02:27;98017.11;;;6.71;56.22
62436;BME280;48480;50.252;18.848;2023-12-20T02:05:12;98011.00;;;6.71;55.93
62436;BME280;48480;50.252;18.848;2023-12-20T02:07:56;98003.88;;;6.70;55.90
62436;BME280;48480;50.252;18.848;2023-12-20T02:10:40;97999.12;;;6.71;55.92
62436;BME280;48480;50.252;18.848;2023-12-20T02:13:26;98003.27;;;6.71;55.95
62436;BME280;48480;50.252;18.848;2023-12-20T02:16:10;98017.98;;;6.72;55.79
62436;BME280;48480;50.252;18.848;2023-12-20T02:18:54;98009.58;;;6.73;56.01
62436;BME280;48480;50.252;18.848;2023-12-20T02:21:37;98013.16;;;6.74;55.88
62436;BME280;48480;50.252;18.848;2023-12-20T02:24:21;98014.70;;;6.75;55.64
62436;BME280;48480;50.252;18.848;2023-12-20T02:27:06;98012.69;;;6.74;55.50
62436;BME280;48480;50.252;18.848;2023-12-20T02:29:51;98002.36;;;6.73;55.58
62436;BME280;48480;50.252;18.848;2023-12-20T02:32:35;98013.30;;;6.73;55.88
62436;BME280;48480;50.252;18.848;2023-12-20T02:35:19;98010.46;;;6.71;56.17
62436;BME280;48480;50.252;18.848;2023-12-20T02:38:03;98004.83;;;6.71;56.49
62436;BME280;48480;50.252;18.848;2023-12-20T02:40:47;97997.57;;;6.71;56.47
62436;BME280;48480;50.252;18.848;2023-12-20T02:43:31;97996.91;;;6.69;56.42
62436;BME280;48480;50.252;18.848;2023-12-20T02:46:16;97996.10;;;6.67;56.04
62436;BME280;48480;50.252;18.848;2023-12-20T02:49:01;97987.13;;;6.66;56.44
62436;BME280;48480;50.252;18.848;2023-12-20T02:51:45;97980.75;;;6.65;56.60
62436;BME280;48480;50.252;18.848;2023-12-20T02:54:30;97988.30;;;6.63;57.17
62436;BME280;48480;50.252;18.848;2023-12-20T02:57:14;97982.60;;;6.56;57.87
62436;BME280;48480;50.252;18.848;2023-12-20T02:59:58;97984.20;;;6.48;59.49
62436;BME280;48480;50.252;18.848;2023-12-20T03:02:42;97983.72;;;6.39;60.37
62436;BME280;48480;50.252;18.848;2023-12-20T03:05:27;97985.27;;;6.31;61.26
62436;BME280;48480;50.252;18.848;2023-12-20T03:08:11;97990.48;;;6.24;61.79
62436;BME280;48480;50.252;18.848;2023-12-20T03:10:55;97986.26;;;6.18;62.70
62436;BME280;48480;50.252;18.848;2023-12-20T03:13:39;97983.85;;;6.13;63.76
62436;BME280;48480;50.252;18.848;2023-12-20T03:16:23;97983.34;;;6.10;64.67
62436;BME280;48480;50.252;18.848;2023-12-20T03:19:07;97981.96;;;6.09;65.19
62436;BME280;48480;50.252;18.848;2023-12-20T03:21:51;97977.58;;;6.08;65.86
62436;BME280;48480;50.252;18.848;2023-12-20T03:24:36;97978.84;;;6.09;66.31
62436;BME280;48480;50.252;18.848;2023-12-20T03:27:20;97977.24;;;6.12;66.76
62436;BME280;48480;50.252;18.848;2023-12-20T03:30:05;97977.71;;;6.17;67.13
62436;BME280;48480;50.252;18.848;2023-12-20T03:32:50;97979.30;;;6.23;67.55
62436;BME280;48480;50.252;18.848;2023-12-20T03:35:34;97984.34;;;6.26;67.40
62436;BME280;48480;50.252;18.848;2023-12-20T03:38:21;97982.28;;;6.25;67.82
62436;BME280;48480;50.252;18.848;2023-12-20T03:41:05;97981.42;;;6.20;68.04
62436;BME280;48480;50.252;18.848;2023-12-20T03:43:49;97977.00;;;6.13;68.36
62436;BME280;48480;50.252;18.848;2023-12-20T03:46:33;97976.91;;;6.04;68.91
62436;BME280;48480;50.252;18.848;2023-12-20T03:49:17;97983.06;;;5.93;69.25
62436;BME280;48480;50.252;18.848;2023-12-20T03:52:01;97985.48;;;5.78;69.82
62436;BME280;48480;50.252;18.848;2023-12-20T03:54:44;97983.88;;;5.66;70.54
62436;BME280;48480;50.252;18.848;2023-12-20T03:57:28;97984.16;;;5.56;71.03
62436;BME280;48480;50.252;18.848;2023-12-20T04:00:12;97980.41;;;5.48;71.36
62436;BME280;48480;50.252;18.848;2023-12-20T04:02:56;97985.52;;;5.42;71.83
62436;BME280;48480;50.252;18.848;2023-12-20T04:05:41;97990.20;;;5.36;72.43
62436;BME280;48480;50.252;18.848;2023-12-20T04:08:25;97989.37;;;5.35;72.79
62436;BME280;48480;50.252;18.848;2023-12-20T04:11:09;97992.70;;;5.36;73.04
62436;BME280;48480;50.252;18.848;2023-12-20T04:13:53;97991.24;;;5.37;73.49
62436;BME280;48480;50.252;18.848;2023-12-20T04:16:38;97995.65;;;5.38;73.71
62436;BME280;48480;50.252;18.848;2023-12-20T04:19:22;97995.40;;;5.37;74.13
62436;BME280;48480;50.252;18.848;2023-12-20T04:22:07;97995.16;;;5.32;74.63
62436;BME280;48480;50.252;18.848;2023-12-20T04:24:51;97993.22;;;5.24;74.95
62436;BME280;48480;50.252;18.848;2023-12-20T04:27:35;98001.15;;;5.14;75.52
62436;BME280;48480;50.252;18.848;2023-12-20T04:30:18;98000.47;;;5.06;75.92
62436;BME280;48480;50.252;18.848;2023-12-20T04:33:02;97995.13;;;5.00;76.33
62436;BME280;48480;50.252;18.848;2023-12-20T04:35:47;97994.20;;;4.95;76.79
62436;BME280;48480;50.252;18.848;2023-12-20T04:38:31;97988.81;;;4.90;77.16
62436;BME280;48480;50.252;18.848;2023-12-20T04:41:15;97985.17;;;4.85;77.61
62436;BME280;48480;50.252;18.848;2023-12-20T04:43:59;97982.56;;;4.82;78.20
62436;BME280;48480;50.252;18.848;2023-12-20T04:46:44;97977.81;;;4.82;78.52
62436;BME280;48480;50.252;18.848;2023-12-20T04:49:28;97975.25;;;4.83;78.41
62436;BME280;48480;50.252;18.848;2023-12-20T04:52:12;97973.17;;;4.83;78.73
62436;BME280;48480;50.252;18.848;2023-12-20T04:54:56;97967.05;;;4.84;79.03
62436;BME280;48480;50.252;18.848;2023-12-20T04:57:41;97966.77;;;4.82;79.21
62436;BME280;48480;50.252;18.848;2023-12-20T05:00:25;97960.76;;;4.82;79.54
62436;BME280;48480;50.252;18.848;2023-12-20T05:03:08;97957.05;;;4.81;79.56
62436;BME280;48480;50.252;18.848;2023-12-20T05:05:53;97955.59;;;4.79;79.82
62436;BME280;48480;50.252;18.848;2023-12-20T05:08:37;97958.29;;;4.77;80.02
62436;BME280;48480;50.252;18.848;2023-12-20T05:11:23;97962.96;;;4.77;80.16
62436;BME280;48480;50.252;18.848;2023-12-20T05:14:08;97966.46;;;4.81;80.09
62436;BME280;48480;50.252;18.848;2023-12-20T05:16:51;97964.05;;;4.86;80.11
62436;BME280;48480;50.252;18.848;2023-12-20T05:19:36;97960.67;;;4.91;80.15
62436;BME280;48480;50.252;18.848;2023-12-20T05:22:20;97964.02;;;4.96;80.28
62436;BME280;48480;50.252;18.848;2023-12-20T05:25:05;97968.31;;;5.02;80.27
62436;BME280;48480;50.252;18.848;2023-12-20T05:27:49;97971.55;;;5.02;80.20
62436;BME280;48480;50.252;18.848;2023-12-20T05:30:33;97967.80;;;5.03;80.38
62436;BME280;48480;50.252;18.848;2023-12-20T05:33:17;97954.51;;;4.98;80.44
62436;BME280;48480;50.252;18.848;2023-12-20T05:36:02;97946.42;;;4.91;80.47
62436;BME280;48480;50.252;18.848;2023-12-20T05:38:46;97963.48;;;4.98;80.51
62436;BME280;48480;50.252;18.848;2023-12-20T05:41:30;97960.32;;;4.94;80.61
62436;BME280;48480;50.252;18.848;2023-12-20T05:44:15;97957.95;;;4.88;80.80
62436;BME280;48480;50.252;18.848;2023-12-20T05:46:59;97950.70;;;4.83;80.80
62436;BME280;48480;50.252;18.848;2023-12-20T05:49:44;97954.45;;;4.85;80.99
62436;BME280;48480;50.252;18.848;2023-12-20T05:52:28;97953.59;;;4.81;81.06
62436;BME280;48480;50.252;18.848;2023-12-20T05:55:14;97955.98;;;4.78;81.29
62436;BME280;48480;50.252;18.848;2023-12-20T05:57:59;97955.73;;;4.75;81.56
62436;BME280;48480;50.252;18.848;2023-12-20T06:00:43;97959.95;;;4.73;81.73
62436;BME280;48480;50.252;18.848;2023-12-20T06:03:27;97961.75;;;4.69;81.89
62436;BME280;48480;50.252;18.848;2023-12-20T06:06:11;97960.92;;;4.66;82.16
62436;BME280;48480;50.252;18.848;2023-12-20T06:08:56;97964.27;;;4.64;82.09
62436;BME280;48480;50.252;18.848;2023-12-20T06:11:40;97966.58;;;4.63;82.17
62436;BME280;48480;50.252;18.848;2023-12-20T06:14:24;97967.56;;;4.64;82.20
62436;BME280;48480;50.252;18.848;2023-12-20T06:17:08;97963.83;;;4.64;82.31
62436;BME280;48480;50.252;18.848;2023-12-20T06:19:52;97962.95;;;4.63;82.50
62436;BME280;48480;50.252;18.848;2023-12-20T06:22:37;97965.20;;;4.63;82.59
62436;BME280;48480;50.252;18.848;2023-12-20T06:25:21;97967.88;;;4.61;82.80
62436;BME280;48480;50.252;18.848;2023-12-20T06:28:06;97972.59;;;4.58;82.94
62436;BME280;48480;50.252;18.848;2023-12-20T06:30:50;97975.78;;;4.55;83.18
62436;BME280;48480;50.252;18.848;2023-12-20T06:33:36;97979.04;;;4.53;83.38
62436;BME280;48480;50.252;18.848;2023-12-20T06:36:20;97977.58;;;4.54;83.39
62436;BME280;48480;50.252;18.848;2023-12-20T06:39:05;97983.37;;;4.58;83.51
62436;BME280;48480;50.252;18.848;2023-12-20T06:41:49;97986.80;;;4.64;83.67
62436;BME280;48480;50.252;18.848;2023-12-20T06:44:33;97990.65;;;4.66;83.63
62436;BME280;48480;50.252;18.848;2023-12-20T06:47:18;97990.17;;;4.65;83.83
62436;BME280;48480;50.252;18.848;2023-12-20T06:50:02;97991.33;;;4.63;83.97
62436;BME280;48480;50.252;18.848;2023-12-20T06:52:46;97994.48;;;4.58;84.22
62436;BME280;48480;50.252;18.848;2023-12-20T06:55:41;97996.63;;;4.52;84.56
62436;BME280;48480;50.252;18.848;2023-12-20T06:58:25;97998.05;;;4.45;84.93
62436;BME280;48480;50.252;18.848;2023-12-20T07:01:13;98000.94;;;4.44;84.99
62436;BME280;48480;50.252;18.848;2023-12-20T07:03:57;98000.39;;;4.45;85.19
62436;BME280;48480;50.252;18.848;2023-12-20T07:06:41;98004.73;;;4.46;85.19
62436;BME280;48480;50.252;18.848;2023-12-20T07:09:26;98003.38;;;4.43;85.46
62436;BME280;48480;50.252;18.848;2023-12-20T07:12:11;97998.96;;;4.41;85.60
62436;BME280;48480;50.252;18.848;2023-12-20T07:14:54;98000.58;;;4.38;85.91
62436;BME280;48480;50.252;18.848;2023-12-20T07:17:39;98007.13;;;4.37;86.18
62436;BME280;48480;50.252;18.848;2023-12-20T07:20:24;98007.00;;;4.39;86.35
62436;BME280;48480;50.252;18.848;2023-12-20T07:23:08;98007.30;;;4.44;86.29
62436;BME280;48480;50.252;18.848;2023-12-20T07:25:52;98008.45;;;4.49;86.29
62436;BME280;48480;50.252;18.848;2023-12-20T07:28:36;98009.20;;;4.50;86.34
62436;BME280;48480;50.252;18.848;2023-12-20T07:31:21;98007.13;;;4.50;86.54
62436;BME280;48480;50.252;18.848;2023-12-20T07:34:05;98008.15;;;4.48;86.61
62436;BME280;48480;50.252;18.848;2023-12-20T07:36:50;98008.02;;;4.46;86.69
62436;BME280;48480;50.252;18.848;2023-12-20T07:39:34;98011.00;;;4.45;86.95
62436;BME280;48480;50.252;18.848;2023-12-20T07:42:18;98015.04;;;4.46;87.03
62436;BME280;48480;50.252;18.848;2023-12-20T07:45:03;98017.67;;;4.52;86.94
62436;BME280;48480;50.252;18.848;2023-12-20T07:47:47;98017.43;;;4.58;86.91
62436;BME280;48480;50.252;18.848;2023-12-20T07:50:33;98019.11;;;4.63;86.87
62436;BME280;48480;50.252;18.848;2023-12-20T07:53:17;98021.92;;;4.63;86.94
62436;BME280;48480;50.252;18.848;2023-12-20T07:56:01;98021.45;;;4.59;87.06
62436;BME280;48480;50.252;18.848;2023-12-20T07:58:46;98021.38;;;4.57;87.28
62436;BME280;48480;50.252;18.848;2023-12-20T08:01:32;98016.17;;;4.57;87.33
62436;BME280;48480;50.252;18.848;2023-12-20T08:04:16;98017.32;;;4.55;87.37
62436;BME280;48480;50.252;18.848;2023-12-20T08:07:00;98015.55;;;4.55;87.49
62436;BME280;48480;50.252;18.848;2023-12-20T08:09:47;98012.20;;;4.60;87.38
62436;BME280;48480;50.252;18.848;2023-12-20T08:12:31;98016.39;;;4.64;87.33
62436;BME280;48480;50.252;18.848;2023-12-20T08:15:15;98017.59;;;4.66;87.41
62436;BME280;48480;50.252;18.848;2023-12-20T08:17:59;98012.78;;;4.64;87.34
62436;BME280;48480;50.252;18.848;2023-12-20T08:20:43;98012.66;;;4.61;87.45
62436;BME280;48480;50.252;18.848;2023-12-20T08:23:27;98010.39;;;4.56;87.47
62436;BME280;48480;50.252;18.848;2023-12-20T08:26:11;98008.70;;;4.52;87.66
62436;BME280;48480;50.252;18.848;2023-12-20T08:28:55;98010.90;;;4.49;87.87
62436;BME280;48480;50.252;18.848;2023-12-20T08:31:39;97998.08;;;4.44;87.92
62436;BME280;48480;50.252;18.848;2023-12-20T08:34:24;98001.47;;;4.53;87.87
62436;BME280;48480;50.252;18.848;2023-12-20T08:37:08;98006.66;;;4.53;87.96
62436;BME280;48480;50.252;18.848;2023-12-20T08:39:52;98012.56;;;4.48;88.14
62436;BME280;48480;50.252;18.848;2023-12-20T08:42:36;98016.56;;;4.43;88.36
62436;BME280;48480;50.252;18.848;2023-12-20T08:45:20;98018.52;;;4.40;88.59
62436;BME280;48480;50.252;18.848;2023-12-20T08:48:05;98016.76;;;4.36;88.81
62436;BME280;48480;50.252;18.848;2023-12-20T08:50:49;98022.50;;;4.35;88.88
62436;BME280;48480;50.252;18.848;2023-12-20T08:53:34;98020.45;;;4.38;88.96
62436;BME280;48480;50.252;18.848;2023-12-20T08:56:18;98018.83;;;4.40;88.90
62436;BME280;48480;50.252;18.848;2023-12-20T08:59:04;98023.23;;;4.41;89.24
62436;BME280;48480;50.252;18.848;2023-12-20T09:01:48;98025.19;;;4.42;89.34
62436;BME280;48480;50.252;18.848;2023-12-20T09:04:37;98024.45;;;4.41;89.44
62436;BME280;48480;50.252;18.848;2023-12-20T09:07:26;98024.27;;;4.43;89.50
62436;BME280;48480;50.252;18.848;2023-12-20T09:10:10;98026.20;;;4.49;89.38
62436;BME280;48480;50.252;18.848;2023-12-20T09:12:54;98023.38;;;4.55;89.30
62436;BME280;48480;50.252;18.848;2023-12-20T09:15:40;98017.80;;;4.58;89.23
62436;BME280;48480;50.252;18.848;2023-12-20T09:18:25;98014.75;;;4.60;89.29
62436;BME280;48480;50.252;18.848;2023-12-20T09:21:09;98013.83;;;4.61;89.38
62436;BME280;48480;50.252;18.848;2023-12-20T09:23:53;98015.14;;;4.63;89.51
62436;BME280;48480;50.252;18.848;2023-12-20T09:26:36;98019.33;;;4.63;89.51
62436;BME280;48480;50.252;18.848;2023-12-20T09:29:20;98019.91;;;4.67;89.51
62436;BME280;48480;50.252;18.848;2023-12-20T09:32:04;98016.59;;;4.73;89.29
62436;BME280;48480;50.252;18.848;2023-12-20T09:34:49;98013.55;;;4.78;89.17
62436;BME280;48480;50.252;18.848;2023-12-20T09:37:33;98009.38;;;4.83;89.14
62436;BME280;48480;50.252;18.848;2023-12-20T09:40:18;98008.90;;;4.87;88.94
62436;BME280;48480;50.252;18.848;2023-12-20T09:43:04;98005.60;;;4.86;89.07
62436;BME280;48480;50.252;18.848;2023-12-20T09:45:53;98001.52;;;4.82;89.18
62436;BME280;48480;50.252;18.848;2023-12-20T09:48:38;98001.34;;;4.81;89.40
62436;BME280;48480;50.252;18.848;2023-12-20T09:51:23;98003.62;;;4.81;89.37
62436;BME280;48480;50.252;18.848;2023-12-20T09:54:09;97999.62;;;4.78;89.29
62436;BME280;48480;50.252;18.848;2023-12-20T09:56:54;97994.76;;;4.76;89.43
62436;BME280;48480;50.252;18.848;2023-12-20T09:59:38;97993.77;;;4.78;89.47
62436;BME280;48480;50.252;18.848;2023-12-20T10:02:25;97995.08;;;4.77;89.37
62436;BME280;48480;50.252;18.848;2023-12-20T10:05:16;97992.27;;;4.72;89.62
62436;BME280;48480;50.252;18.848;2023-12-20T10:08:03;97995.25;;;4.68;89.70
62436;BME280;48480;50.252;18.848;2023-12-20T10:10:47;97996.75;;;4.66;89.86
62436;BME280;48480;50.252;18.848;2023-12-20T10:13:31;97995.12;;;4.65;89.91
62436;BME280;48480;50.252;18.848;2023-12-20T10:16:15;97997.60;;;4.66;90.00
62436;BME280;48480;50.252;18.848;2023-12-20T10:19:00;97998.02;;;4.71;90.04
62436;BME280;48480;50.252;18.848;2023-12-20T10:21:48;97998.95;;;4.77;89.87
62436;BME280;48480;50.252;18.848;2023-12-20T10:24:32;97994.36;;;4.78;89.78
62436;BME280;48480;50.252;18.848;2023-12-20T10:27:18;97994.53;;;4.78;89.73
62436;BME280;48480;50.252;18.848;2023-12-20T10:30:03;97993.91;;;4.72;89.84
62436;BME280;48480;50.252;18.848;2023-12-20T10:32:48;97994.08;;;4.72;90.31
62436;BME280;48480;50.252;18.848;2023-12-20T10:35:32;97996.33;;;4.71;90.33
62436;BME280;48480;50.252;18.848;2023-12-20T10:38:16;97993.45;;;4.67;90.23
62436;BME280;48480;50.252;18.848;2023-12-20T10:41:01;97994.47;;;4.66;90.16
62436;BME280;48480;50.252;18.848;2023-12-20T10:43:48;97995.19;;;4.68;90.29
62436;BME280;48480;50.252;18.848;2023-12-20T10:46:33;97998.42;;;4.69;90.47
62436;BME280;48480;50.252;18.848;2023-12-20T10:49:18;97999.09;;;4.70;90.59
62436;BME280;48480;50.252;18.848;2023-12-20T10:52:03;98005.23;;;4.65;90.70
62436;BME280;48480;50.252;18.848;2023-12-20T10:54:49;97998.62;;;4.58;90.79
62436;BME280;48480;50.252;18.848;2023-12-20T10:57:36;97998.35;;;4.55;90.99
62436;BME280;48480;50.252;18.848;2023-12-20T11:00:21;97998.22;;;4.57;91.16
62436;BME280;48480;50.252;18.848;2023-12-20T11:03:09;97990.30;;;4.61;91.33
62436;BME280;48480;50.252;18.848;2023-12-20T11:06:01;97991.43;;;4.63;91.37
62436;BME280;48480;50.252;18.848;2023-12-20T11:08:51;97986.07;;;4.59;91.30
62436;BME280;48480;50.252;18.848;2023-12-20T11:14:46;97980.86;;;4.66;91.43
62436;BME280;48480;50.252;18.848;2023-12-20T11:17:31;97982.67;;;4.71;91.40
62436;BME280;48480;50.252;18.848;2023-12-20T11:20:16;97980.20;;;4.72;91.34
62436;BME280;48480;50.252;18.848;2023-12-20T11:23:00;97974.54;;;4.67;91.33
62436;BME280;48480;50.252;18.848;2023-12-20T11:25:49;97972.47;;;4.63;91.56
62436;BME280;48480;50.252;18.848;2023-12-20T11:28:35;97969.39;;;4.62;91.67
62436;BME280;48480;50.252;18.848;2023-12-20T11:31:19;97967.60;;;4.65;91.69
62436;BME280;48480;50.252;18.848;2023-12-20T11:34:13;97963.90;;;4.67;91.67
62436;BME280;48480;50.252;18.848;2023-12-20T11:37:02;97969.23;;;4.65;91.71
62436;BME280;48480;50.252;18.848;2023-12-20T11:39:56;97972.42;;;4.65;91.96
62436;BME280;48480;50.252;18.848;2023-12-20T11:42:45;97967.66;;;4.65;92.09
62436;BME280;48480;50.252;18.848;2023-12-20T11:45:32;97967.20;;;4.66;92.05
62436;BME280;48480;50.252;18.848;2023-12-20T11:48:16;97965.92;;;4.70;91.99
62436;BME280;48480;50.252;18.848;2023-12-20T11:51:01;97966.69;;;4.73;91.85
62436;BME280;48480;50.252;18.848;2023-12-20T11:53:51;97967.23;;;4.72;91.96
62436;BME280;48480;50.252;18.848;2023-12-20T11:56:36;97965.06;;;4.71;92.20
62436;BME280;48480;50.252;18.848;2023-12-20T11:59:21;97964.48;;;4.71;92.36
62436;BME280;48480;50.252;18.848;2023-12-20T12:02:05;97957.45;;;4.73;92.54
62436;BME280;48480;50.252;18.848;2023-12-20T12:04:50;97941.50;;;4.77;92.67
62436;BME280;48480;50.252;18.848;2023-12-20T12:07:37;97943.44;;;4.92;92.42
62436;BME280;48480;50.252;18.848;2023-12-20T12:10:21;97941.25;;;4.99;92.12
62436;BME280;48480;50.252;18.848;2023-12-20T12:13:06;97948.29;;;5.03;91.95
62436;BME280;48480;50.252;18.848;2023-12-20T12:15:50;97949.77;;;5.07;91.88
62436;BME280;48480;50.252;18.848;2023-12-20T12:18:37;97944.80;;;5.09;91.70
62436;BME280;48480;50.252;18.848;2023-12-20T12:21:21;97941.84;;;5.12;91.67
62436;BME280;48480;50.252;18.848;2023-12-20T12:24:09;97939.97;;;5.16;91.43
62436;BME280;48480;50.252;18.848;2023-12-20T12:26:57;97941.22;;;5.23;91.13
62436;BME280;48480;50.252;18.848;2023-12-20T12:30:02;97942.89;;;5.31;90.69
62436;BME280;48480;50.252;18.848;2023-12-20T12:32:53;97940.77;;;5.33;90.24
62436;BME280;48480;50.252;18.848;2023-12-20T12:35:43;97942.21;;;5.34;90.28
62436;BME280;48480;50.252;18.848;2023-12-20T12:38:27;97937.80;;;5.34;90.01
62436;BME280;48480;50.252;18.848;2023-12-20T12:41:13;97939.85;;;5.35;90.08
62436;BME280;48480;50.252;18.848;2023-12-20T12:44:15;97941.89;;;5.34;89.83
62436;BME280;48480;50.252;18.848;2023-12-20T12:47:01;97924.48;;;5.23;89.85
62436;BME280;48480;50.252;18.848;2023-12-20T12:49:52;97949.80;;;5.38;89.96
62436;BME280;48480;50.252;18.848;2023-12-20T12:52:38;97957.30;;;5.46;90.01
62436;BME280;48480;50.252;18.848;2023-12-20T12:55:22;97954.23;;;5.54;89.68
62436;BME280;48480;50.252;18.848;2023-12-20T12:58:09;97948.95;;;5.55;89.43
62436;BME280;48480;50.252;18.848;2023-12-20T13:00:56;97939.52;;;5.53;89.23
62436;BME280;48480;50.252;18.848;2023-12-20T13:03:42;97939.46;;;5.50;89.25
62436;BME280;48480;50.252;18.848;2023-12-20T13:06:27;97932.21;;;5.48;89.11
62436;BME280;48480;50.252;18.848;2023-12-20T13:09:11;97923.81;;;5.44;88.93
62436;BME280;48480;50.252;18.848;2023-12-20T13:11:55;97924.11;;;5.46;88.77
62436;BME280;48480;50.252;18.848;2023-12-20T13:14:40;97925.12;;;5.52;88.50
62436;BME280;48480;50.252;18.848;2023-12-20T13:17:24;97927.27;;;5.56;88.19
62436;BME280;48480;50.252;18.848;2023-12-20T13:20:08;97926.56;;;5.60;87.94
62436;BME280;48480;50.252;18.848;2023-12-20T13:22:53;97920.53;;;5.64;87.85
62436;BME280;48480;50.252;18.848;2023-12-20T13:25:36;97916.29;;;5.66;87.80
62436;BME280;48480;50.252;18.848;2023-12-20T13:28:23;97912.64;;;5.65;87.73
62436;BME280;48480;50.252;18.848;2023-12-20T13:31:07;97919.45;;;5.65;87.66
62436;BME280;48480;50.252;18.848;2023-12-20T13:33:51;97926.72;;;5.60;87.46
62436;BME280;48480;50.252;18.848;2023-12-20T13:36:36;97929.87;;;5.57;87.32
62436;BME280;48480;50.252;18.848;2023-12-20T13:39:20;97928.11;;;5.57;87.41
62436;BME280;48480;50.252;18.848;2023-12-20T13:42:05;97931.45;;;5.58;87.31
62436;BME280;48480;50.252;18.848;2023-12-20T13:44:49;97927.64;;;5.56;87.16
62436;BME280;48480;50.252;18.848;2023-12-20T13:47:34;97927.19;;;5.52;87.20
62436;BME280;48480;50.252;18.848;2023-12-20T13:50:19;97931.17;;;5.47;87.54
62436;BME280;48480;50.252;18.848;2023-12-20T13:53:03;97936.34;;;5.43;87.58
62436;BME280;48480;50.252;18.848;2023-12-20T13:55:48;97933.36;;;5.37;87.76
62436;BME280;48480;50.252;18.848;2023-12-20T13:58:32;97932.51;;;5.35;87.91
62436;BME280;48480;50.252;18.848;2023-12-20T14:01:16;97936.14;;;5.34;87.95
62436;BME280;48480;50.252;18.848;2023-12-20T14:04:01;97938.06;;;5.34;87.92
62436;BME280;48480;50.252;18.848;2023-12-20T14:06:44;97930.11;;;5.31;88.11
62436;BME280;48480;50.252;18.848;2023-12-20T14:09:28;97925.06;;;5.25;88.19
62436;BME280;48480;50.252;18.848;2023-12-20T14:12:13;97921.89;;;5.19;88.34
62436;BME280;48480;50.252;18.848;2023-12-20T14:14:57;97917.45;;;5.14;88.52
62436;BME280;48480;50.252;18.848;2023-12-20T14:17:41;97909.17;;;5.13;88.61
62436;BME280;48480;50.252;18.848;2023-12-20T14:20:25;97914.98;;;5.15;88.56
62436;BME280;48480;50.252;18.848;2023-12-20T14:23:10;97920.25;;;5.18;88.45
62436;BME280;48480;50.252;18.848;2023-12-20T14:25:54;97920.27;;;5.20;88.39
62436;BME280;48480;50.252;18.848;2023-12-20T14:28:43;97919.27;;;5.19;88.31
62436;BME280;48480;50.252;18.848;2023-12-20T14:31:27;97915.20;;;5.15;88.27
62436;BME280;48480;50.252;18.848;2023-12-20T14:34:11;97917.63;;;5.06;88.28
62436;BME280;48480;50.252;18.848;2023-12-20T14:36:55;97918.65;;;4.99;88.40